Time;durP1;ratioP1;P1;durP2;ratioP2;P2;SDS_P1;SDS_P2;PMS_P1;PMS_P2;Temp;Humidity;BMP_temperature;BMP_pressure;BME280_temperature;BME280_humidity;BME280_pressure;Samples;Min_cycle;Max_cycle;Signal;HPM_P1;HPM_P2
2023/09/18 00:01:05;;;;;;;7.78;4.75;;;;;;;;;;6053262;23;20291;-91
2023/09/18 00:04:10;;;;;;;7.90;4.90;;;;;;;;;;6053512;23;20267;-89
2023/09/18 00:07:16;;;;;;;13.15;5.10;;;;;;;;;;6052806;23;20251;-90
2023/09/18 00:10:21;;;;;;;9.55;5.28;;;;;;;;;;6052448;23;20171;-91
2023/09/18 00:13:27;;;;;;;8.52;4.93;;;;;;;;;;6051842;23;20528;-92
2023/09/18 00:16:33;;;;;;;13.95;5.03;;;;;;;;;;6053984;23;20198;-93
2023/09/18 00:19:40;;;;;;;7.95;5.03;;;;;;;;;;6052390;23;20172;-88
2023/09/18 00:22:45;;;;;;;10.60;5.38;;;;;;;;;;6053669;23;20171;-90
2023/09/18 00:25:50;;;;;;;9.57;5.30;;;;;;;;;;6040539;23;20163;-92
2023/09/18 00:28:56;;;;;;;8.43;5.72;;;;;;;;;;6067744;23;20237;-89
2023/09/18 00:32:02;;;;;;;9.60;5.30;;;;;;;;;;6068207;23;20503;-89
2023/09/18 00:35:08;;;;;;;10.13;5.35;;;;;;;;;;6066448;23;20173;-91
2023/09/18 00:38:13;;;;;;;7.25;4.75;;;;;;;;;;6067970;23;20174;-90
2023/09/18 00:41:18;;;;;;;9.13;5.25;;;;;;;;;;6067663;23;20163;-91
2023/09/18 00:44:23;;;;;;;9.93;5.53;;;;;;;;;;6065769;23;20169;-89
2023/09/18 00:47:33;;;;;;;9.52;5.22;;;;;;;;;;6085178;23;20170;-91
2023/09/18 00:50:40;;;;;;;10.98;4.78;;;;;;;;;;6067557;23;20235;-92
2023/09/18 00:53:48;;;;;;;11.45;5.10;;;;;;;;;;6068278;23;20175;-88
2023/09/18 00:56:56;;;;;;;10.02;5.40;;;;;;;;;;6069131;23;20178;-90
2023/09/18 01:00:08;;;;;;;12.68;5.10;;;;;;;;;;6071292;23;20178;-91
2023/09/18 01:03:19;;;;;;;10.05;5.05;;;;;;;;;;6068943;23;20175;-90
2023/09/18 01:06:30;;;;;;;10.30;5.65;;;;;;;;;;6068361;23;20179;-92
2023/09/18 01:09:37;;;;;;;11.98;5.47;;;;;;;;;;6087183;23;20171;-90
2023/09/18 01:12:46;;;;;;;12.10;5.72;;;;;;;;;;6069373;23;20174;-91
2023/09/18 01:15:56;;;;;;;11.35;5.70;;;;;;;;;;6068881;23;20179;-90
2023/09/18 01:19:03;;;;;;;8.50;5.18;;;;;;;;;;6068191;23;20173;-91
2023/09/18 01:22:09;;;;;;;8.32;5.15;;;;;;;;;;6066452;23;20230;-88
2023/09/18 01:25:16;;;;;;;7.40;4.88;;;;;;;;;;6066829;23;20175;-89
2023/09/18 01:28:24;;;;;;;8.70;5.28;;;;;;;;;;6065390;23;20165;-92
2023/09/18 01:31:29;;;;;;;8.25;5.28;;;;;;;;;;6068142;23;20174;-92
2023/09/18 01:34:39;;;;;;;11.13;5.40;;;;;;;;;;6064831;23;20251;-90
2023/09/18 01:37:46;;;;;;;10.05;5.18;;;;;;;;;;6064621;23;20201;-89
2023/09/18 01:40:54;;;;;;;15.90;6.95;;;;;;;;;;6064936;23;20173;-89
2023/09/18 01:43:59;;;;;;;9.30;5.32;;;;;;;;;;6066500;23;20627;-90
2023/09/18 01:47:05;;;;;;;8.23;5.45;;;;;;;;;;6065562;23;20174;-91
2023/09/18 01:50:13;;;;;;;8.80;5.68;;;;;;;;;;6063112;23;20178;-90
2023/09/18 01:53:18;;;;;;;9.10;5.57;;;;;;;;;;6063377;23;20211;-90
2023/09/18 01:56:26;;;;;;;9.40;5.10;;;;;;;;;;6062518;23;20293;-90
2023/09/18 01:59:31;;;;;;;9.15;5.70;;;;;;;;;;6047065;23;20251;-92
2023/09/18 02:02:37;;;;;;;11.02;5.55;;;;;;;;;;6064393;23;20666;-91
2023/09/18 02:05:42;;;;;;;10.15;5.68;;;;;;;;;;6064139;23;20166;-89
2023/09/18 02:08:47;;;;;;;8.88;6.07;;;;;;;;;;6067082;23;20170;-91
2023/09/18 02:11:56;;;;;;;11.88;5.80;;;;;;;;;;6066220;23;20174;-89
2023/09/18 02:15:06;;;;;;;9.82;6.05;;;;;;;;;;6065377;23;20162;-91
2023/09/18 02:18:11;;;;;;;15.18;6.65;;;;;;;;;;6067092;23;20210;-91
2023/09/18 02:21:23;;;;;;;13.77;5.90;;;;;;;;;;6068295;23;20174;-91
2023/09/18 02:24:28;;;;;;;10.60;5.97;;;;;;;;;;6084596;23;20179;-91
2023/09/18 02:27:36;;;;;;;9.85;4.70;;;;;;;;;;6077178;23;20198;-91
2023/09/18 02:30:44;;;;;;;7.00;4.85;;;;;;;;;;6083106;23;20235;-90
2023/09/18 02:33:49;;;;;;;8.35;5.35;;;;;;;;;;6083853;23;20223;-92
2023/09/18 02:36:54;;;;;;;9.57;5.50;;;;;;;;;;6082363;23;20198;-89
2023/09/18 02:40:00;;;;;;;9.60;5.90;;;;;;;;;;6082453;23;20246;-90
2023/09/18 02:43:07;;;;;;;13.15;6.00;;;;;;;;;;6081635;23;20210;-92
2023/09/18 02:46:13;;;;;;;13.13;6.00;;;;;;;;;;6080386;23;20179;-91
2023/09/18 02:49:18;;;;;;;8.38;5.10;;;;;;;;;;6081732;23;20166;-92
2023/09/18 02:52:23;;;;;;;9.05;5.65;;;;;;;;;;6081385;23;20610;-90
2023/09/18 02:55:27;;;;;;;8.27;5.35;;;;;;;;;;6082227;23;20179;-91
2023/09/18 02:58:35;;;;;;;9.43;5.28;;;;;;;;;;6081145;23;20205;-91
2023/09/18 03:01:41;;;;;;;8.50;5.57;;;;;;;;;;6080858;23;20179;-90
2023/09/18 03:04:46;;;;;;;7.70;4.97;;;;;;;;;;6080986;23;20178;-91
2023/09/18 03:07:51;;;;;;;10.18;5.75;;;;;;;;;;6082611;23;20495;-90
2023/09/18 03:10:57;;;;;;;8.18;4.95;;;;;;;;;;6082260;23;20171;-94
2023/09/18 03:14:04;;;;;;;8.93;5.25;;;;;;;;;;6079488;23;20310;-89
2023/09/18 03:17:10;;;;;;;7.22;5.07;;;;;;;;;;6082153;23;20202;-90
2023/09/18 03:20:16;;;;;;;9.05;5.22;;;;;;;;;;6081105;23;20241;-91
2023/09/18 03:23:21;;;;;;;8.25;5.25;;;;;;;;;;6082987;23;20242;-90
2023/09/18 03:26:26;;;;;;;12.05;5.75;;;;;;;;;;6081880;23;20243;-92
2023/09/18 03:29:33;;;;;;;9.70;5.30;;;;;;;;;;6065615;23;20280;-91
2023/09/18 03:32:38;;;;;;;8.85;5.22;;;;;;;;;;6063762;23;20170;-93
2023/09/18 03:35:49;;;;;;;8.10;4.97;;;;;;;;;;6064968;23;20171;-90
2023/09/18 03:38:55;;;;;;;7.93;5.28;;;;;;;;;;6066234;23;20175;-92
2023/09/18 03:42:00;;;;;;;10.85;5.50;;;;;;;;;;6064191;23;20227;-92
2023/09/18 03:45:09;;;;;;;8.32;5.55;;;;;;;;;;6064476;23;20174;-91
2023/09/18 03:48:17;;;;;;;10.45;5.40;;;;;;;;;;6063186;23;20175;-90
2023/09/18 03:51:22;;;;;;;8.98;5.22;;;;;;;;;;6064769;23;20155;-92
2023/09/18 03:54:27;;;;;;;9.43;5.47;;;;;;;;;;6064219;23;20327;-92
2023/09/18 03:57:33;;;;;;;13.63;5.70;;;;;;;;;;6063584;23;20198;-92
2023/09/18 04:00:39;;;;;;;9.10;5.57;;;;;;;;;;6065639;23;20174;-91
2023/09/18 04:03:44;;;;;;;9.68;5.40;;;;;;;;;;6063372;23;20217;-94
2023/09/18 04:06:50;;;;;;;11.98;6.07;;;;;;;;;;6064058;23;20182;-93
2023/09/18 04:09:55;;;;;;;11.77;5.53;;;;;;;;;;6065228;23;20175;-92
2023/09/18 04:13:00;;;;;;;13.73;5.47;;;;;;;;;;6065190;23;20178;-90
2023/09/18 04:16:07;;;;;;;11.45;5.47;;;;;;;;;;6065572;23;20665;-91
2023/09/18 04:19:14;;;;;;;8.82;5.45;;;;;;;;;;6064332;23;20610;-87
2023/09/18 04:22:20;;;;;;;11.32;5.95;;;;;;;;;;6068934;23;20172;-90
2023/09/18 04:25:26;;;;;;;8.85;5.22;;;;;;;;;;6065194;23;20511;-91
2023/09/18 04:28:31;;;;;;;9.50;5.50;;;;;;;;;;6035904;23;20200;-92
2023/09/18 04:31:37;;;;;;;18.75;6.60;;;;;;;;;;6036438;23;20507;-90
2023/09/18 04:34:43;;;;;;;11.45;5.93;;;;;;;;;;6036069;23;20180;-90
2023/09/18 04:37:49;;;;;;;10.20;5.68;;;;;;;;;;6035642;23;20195;-90
2023/09/18 04:41:03;;;;;;;18.40;5.55;;;;;;;;;;6039914;23;20187;-89
2023/09/18 04:44:09;;;;;;;9.70;5.40;;;;;;;;;;6038483;23;20249;-91
2023/09/18 04:47:19;;;;;;;8.80;5.50;;;;;;;;;;6037684;23;20228;-89
2023/09/18 04:50:26;;;;;;;8.00;5.28;;;;;;;;;;6034502;23;20288;-90
2023/09/18 04:53:32;;;;;;;10.18;5.72;;;;;;;;;;6035465;23;20205;-91
2023/09/18 04:56:38;;;;;;;8.02;5.35;;;;;;;;;;6035027;23;20218;-92
2023/09/18 04:59:43;;;;;;;13.27;5.75;;;;;;;;;;6033490;23;20208;-91
2023/09/18 05:02:49;;;;;;;11.73;5.53;;;;;;;;;;6034798;23;20179;-91
2023/09/18 05:05:58;;;;;;;12.80;6.07;;;;;;;;;;6035007;23;20170;-89
2023/09/18 05:09:03;;;;;;;11.18;5.55;;;;;;;;;;6033741;23;20174;-90
2023/09/18 05:12:13;;;;;;;10.05;5.43;;;;;;;;;;6032541;23;20164;-91
2023/09/18 05:15:18;;;;;;;10.32;5.75;;;;;;;;;;6034625;23;20179;-92
2023/09/18 05:21:44;;;;;;;9.23;5.90;;;;;;;;;;6036180;23;20175;-90
2023/09/18 05:24:49;;;;;;;10.88;5.90;;;;;;;;;;6034394;23;20178;-93
2023/09/18 05:27:56;;;;;;;9.45;4.68;;;;;;;;;;6076262;23;20286;-91
2023/09/18 05:31:01;;;;;;;13.50;5.50;;;;;;;;;;6080033;23;20200;-92
2023/09/18 05:34:09;;;;;;;11.27;5.30;;;;;;;;;;6083543;23;20244;-92
2023/09/18 05:37:15;;;;;;;8.48;5.00;;;;;;;;;;6083835;23;20202;-88
2023/09/18 05:40:20;;;;;;;8.20;5.25;;;;;;;;;;6079493;23;20182;-89
2023/09/18 05:43:25;;;;;;;11.82;6.65;;;;;;;;;;6083622;23;20210;-92
2023/09/18 05:46:30;;;;;;;9.80;5.20;;;;;;;;;;6079091;23;20259;-92
2023/09/18 05:49:38;;;;;;;8.98;5.25;;;;;;;;;;6079576;23;20168;-91
2023/09/18 05:52:44;;;;;;;7.32;4.82;;;;;;;;;;6078876;23;20178;-90
2023/09/18 05:55:49;;;;;;;9.43;4.82;;;;;;;;;;6082972;23;20174;-91
2023/09/18 05:58:55;;;;;;;15.30;5.28;;;;;;;;;;6082875;23;20198;-90
2023/09/18 06:02:00;;;;;;;9.00;4.78;;;;;;;;;;6082155;23;20250;-90
2023/09/18 06:05:12;;;;;;;8.35;5.03;;;;;;;;;;6082644;23;20178;-93
2023/09/18 06:08:18;;;;;;;11.35;4.53;;;;;;;;;;6078773;23;20507;-91
2023/09/18 06:11:24;;;;;;;8.52;4.70;;;;;;;;;;6080037;23;20241;-93
2023/09/18 06:14:29;;;;;;;9.63;5.07;;;;;;;;;;6079360;23;20174;-90
2023/09/18 06:17:34;;;;;;;12.48;5.03;;;;;;;;;;6078511;23;20202;-90
2023/09/18 06:20:43;;;;;;;13.82;5.85;;;;;;;;;;6078662;23;20219;-91
2023/09/18 06:23:48;;;;;;;12.80;5.47;;;;;;;;;;6080934;23;20179;-90
2023/09/18 06:26:54;;;;;;;13.02;5.70;;;;;;;;;;6079367;23;20194;-91
2023/09/18 06:29:59;;;;;;;8.98;5.25;;;;;;;;;;6079517;23;20169;-92
2023/09/18 06:33:05;;;;;;;11.23;5.40;;;;;;;;;;6079027;23;20174;-91
2023/09/18 06:36:12;;;;;;;12.25;5.80;;;;;;;;;;6080367;23;20190;-91
2023/09/18 06:39:20;;;;;;;9.90;5.55;;;;;;;;;;6080999;23;20269;-92
2023/09/18 06:42:25;;;;;;;10.82;4.72;;;;;;;;;;6079317;23;20199;-91
2023/09/18 06:45:37;;;;;;;12.00;4.80;;;;;;;;;;6081448;23;20233;-91
2023/09/18 06:48:45;;;;;;;9.18;4.70;;;;;;;;;;6083598;23;20179;-92
2023/09/18 06:51:52;;;;;;;8.10;4.28;;;;;;;;;;6078306;23;20261;-92
2023/09/18 06:54:58;;;;;;;11.18;4.72;;;;;;;;;;6081180;23;20183;-89
2023/09/18 06:58:04;;;;;;;8.45;5.07;;;;;;;;;;6080097;23;20630;-90
2023/09/18 07:01:10;;;;;;;9.27;5.45;;;;;;;;;;6084110;23;20170;-93
2023/09/18 07:04:16;;;;;;;9.38;4.82;;;;;;;;;;6083573;23;20173;-92
2023/09/18 07:07:25;;;;;;;13.02;5.30;;;;;;;;;;6084348;23;20223;-90
2023/09/18 07:10:32;;;;;;;10.70;5.38;;;;;;;;;;6080625;23;20650;-91
2023/09/18 07:13:40;;;;;;;12.40;5.25;;;;;;;;;;6079777;23;20179;-89
2023/09/18 07:16:45;;;;;;;7.85;5.15;;;;;;;;;;6082004;23;20174;-92
2023/09/18 07:19:50;;;;;;;8.57;5.03;;;;;;;;;;6082692;23;20290;-91
2023/09/18 07:22:57;;;;;;;10.70;5.53;;;;;;;;;;6081878;23;20224;-91
2023/09/18 07:26:02;;;;;;;9.75;4.85;;;;;;;;;;6079778;23;20193;-89
2023/09/18 07:29:08;;;;;;;12.05;4.65;;;;;;;;;;6063730;23;20666;-92
2023/09/18 07:32:13;;;;;;;9.07;4.70;;;;;;;;;;6065749;23;20169;-90
2023/09/18 07:35:27;;;;;;;15.73;5.18;;;;;;;;;;6067697;23;20175;-92
2023/09/18 07:38:34;;;;;;;10.02;4.70;;;;;;;;;;6069812;23;20199;-91
2023/09/18 07:41:43;;;;;;;14.15;4.95;;;;;;;;;;6066829;23;20603;-90
2023/09/18 07:44:48;;;;;;;7.95;4.40;;;;;;;;;;6066577;23;20174;-91
2023/09/18 07:47:53;;;;;;;7.47;4.38;;;;;;;;;;6066519;23;20171;-93
2023/09/18 07:50:58;;;;;;;13.82;4.85;;;;;;;;;;6066190;23;20175;-91
2023/09/18 07:54:05;;;;;;;7.90;4.47;;;;;;;;;;6065209;23;20211;-90
2023/09/18 07:57:11;;;;;;;10.52;4.38;;;;;;;;;;6066089;23;20242;-92
2023/09/18 08:00:17;;;;;;;7.47;4.70;;;;;;;;;;6072192;23;20170;-91
2023/09/18 08:03:23;;;;;;;8.23;4.20;;;;;;;;;;6070571;23;20174;-90
2023/09/18 08:06:29;;;;;;;10.48;4.75;;;;;;;;;;6072883;23;20179;-88
2023/09/18 08:09:49;;;;;;;6.97;4.03;;;;;;;;;;6072702;23;20169;-90
2023/09/18 08:13:04;;;;;;;11.55;4.45;;;;;;;;;;6071295;23;20159;-93
2023/09/18 08:16:11;;;;;;;8.55;4.13;;;;;;;;;;6071176;23;20174;-92
2023/09/18 08:19:19;;;;;;;13.55;4.28;;;;;;;;;;6069099;23;20194;-94
2023/09/18 08:22:25;;;;;;;5.57;3.70;;;;;;;;;;6070597;23;20165;-92
2023/09/18 08:25:34;;;;;;;6.13;3.63;;;;;;;;;;6070426;23;20227;-92
2023/09/18 08:28:45;;;;;;;13.52;3.80;;;;;;;;;;6071432;23;20179;-91
2023/09/18 08:31:50;;;;;;;7.40;3.72;;;;;;;;;;6070709;23;20244;-91
2023/09/18 08:34:58;;;;;;;7.00;3.72;;;;;;;;;;6071108;23;20280;-93
2023/09/18 08:38:05;;;;;;;6.88;4.10;;;;;;;;;;6055377;23;20206;-92
2023/09/18 08:41:12;;;;;;;7.18;4.00;;;;;;;;;;6072304;23;20166;-91
2023/09/18 08:44:23;;;;;;;6.72;3.35;;;;;;;;;;6070798;23;20204;-93
2023/09/18 08:47:30;;;;;;;7.65;4.25;;;;;;;;;;6070391;23;20179;-90
2023/09/18 08:50:36;;;;;;;4.72;3.08;;;;;;;;;;6071671;23;20171;-91
2023/09/18 08:57:02;;;;;;;12.10;4.60;;;;;;;;;;6072015;23;20195;-92
2023/09/18 09:00:16;;;;;;;9.25;4.00;;;;;;;;;;6071845;23;20223;-92
2023/09/18 09:03:22;;;;;;;8.45;3.80;;;;;;;;;;6071185;23;20196;-91
2023/09/18 09:06:27;;;;;;;9.40;3.70;;;;;;;;;;6071671;23;20173;-91
2023/09/18 09:09:35;;;;;;;5.32;3.60;;;;;;;;;;6069990;23;20672;-90
2023/09/18 09:12:51;;;;;;;5.35;3.20;;;;;;;;;;6070381;23;20153;-95
2023/09/18 09:16:00;;;;;;;6.10;2.70;;;;;;;;;;6086047;23;20175;-91
2023/09/18 09:19:06;;;;;;;6.20;3.15;;;;;;;;;;6070799;23;20223;-93
2023/09/18 09:22:11;;;;;;;7.13;3.30;;;;;;;;;;6070123;23;20214;-94
2023/09/18 09:25:27;;;;;;;7.25;3.35;;;;;;;;;;6069289;23;20637;-91
2023/09/18 09:28:38;;;;;;;6.75;3.80;;;;;;;;;;6071125;23;20157;-92
2023/09/18 09:31:51;;;;;;;4.70;3.10;;;;;;;;;;6069406;23;20173;-92
2023/09/18 09:35:03;;;;;;;6.05;3.25;;;;;;;;;;6070739;23;20210;-93
2023/09/18 09:41:30;;;;;;;5.85;2.67;;;;;;;;;;6070717;23;20166;-93
2023/09/18 09:44:39;;;;;;;7.40;2.97;;;;;;;;;;6069789;23;20170;-91
2023/09/18 09:47:47;;;;;;;4.75;3.00;;;;;;;;;;6070792;23;20161;-93
2023/09/18 09:50:55;;;;;;;6.13;2.97;;;;;;;;;;6070445;23;20179;-92
2023/09/18 09:54:00;;;;;;;6.18;3.17;;;;;;;;;;6071081;23;20234;-92
2023/09/18 09:57:10;;;;;;;4.72;3.00;;;;;;;;;;6070074;23;20490;-94
2023/09/18 10:00:26;;;;;;;5.20;3.08;;;;;;;;;;6071800;23;20201;-92
2023/09/18 10:03:36;;;;;;;4.88;3.00;;;;;;;;;;6071305;23;20174;-93
2023/09/18 10:06:44;;;;;;;4.95;3.08;;;;;;;;;;6071907;23;20191;-92
2023/09/18 10:09:49;;;;;;;5.55;3.10;;;;;;;;;;6072043;23;20154;-91
2023/09/18 10:13:04;;;;;;;4.22;3.15;;;;;;;;;;6069855;23;20174;-92
2023/09/18 10:16:11;;;;;;;10.00;3.00;;;;;;;;;;6071436;23;20174;-91
2023/09/18 10:19:33;;;;;;;4.50;2.75;;;;;;;;;;6068896;23;20237;-90
2023/09/18 10:22:42;;;;;;;4.88;2.58;;;;;;;;;;6068954;23;20271;-91
2023/09/18 10:25:51;;;;;;;3.70;2.63;;;;;;;;;;6069398;23;20177;-90
2023/09/18 10:29:03;;;;;;;3.60;2.70;;;;;;;;;;6070837;23;20174;-90
2023/09/18 10:32:17;;;;;;;4.57;3.25;;;;;;;;;;6070331;23;20186;-92
2023/09/18 10:35:24;;;;;;;3.70;2.90;;;;;;;;;;6071655;23;20154;-96
2023/09/18 10:38:33;;;;;;;4.00;2.90;;;;;;;;;;6071969;23;20172;-92
2023/09/18 10:41:41;;;;;;;5.03;3.40;;;;;;;;;;6070894;23;20170;-92
2023/09/18 10:44:47;;;;;;;9.27;3.75;;;;;;;;;;6070802;23;20174;-92
2023/09/18 10:47:55;;;;;;;5.95;3.10;;;;;;;;;;6070727;23;20658;-93
2023/09/18 10:51:05;;;;;;;5.22;3.10;;;;;;;;;;6071945;23;20258;-92
2023/09/18 10:54:11;;;;;;;7.43;3.83;;;;;;;;;;6072957;23;20214;-93
2023/09/18 10:57:16;;;;;;;5.32;3.25;;;;;;;;;;6072344;23;20174;-91
2023/09/18 11:00:25;;;;;;;6.72;3.80;;;;;;;;;;6071352;23;20197;-93
2023/09/18 11:03:31;;;;;;;7.60;4.00;;;;;;;;;;6072089;23;20454;-90
2023/09/18 11:06:55;;;;;;;6.53;3.22;;;;;;;;;;6088788;23;20198;-91
2023/09/18 11:10:24;;;;;;;8.40;4.00;;;;;;;;;;6073283;23;20239;-92
2023/09/18 11:13:41;;;;;;;6.07;3.22;;;;;;;;;;6072536;23;20170;-93
2023/09/18 11:16:51;;;;;;;4.47;2.85;;;;;;;;;;6071451;23;20153;-92
2023/09/18 11:20:04;;;;;;;8.65;2.83;;;;;;;;;;6074533;23;20242;-92
2023/09/18 11:23:25;;;;;;;5.97;2.88;;;;;;;;;;6073073;23;20171;-93
2023/09/18 11:26:33;;;;;;;7.55;3.28;;;;;;;;;;6072657;23;20215;-93
2023/09/18 11:29:38;;;;;;;5.60;3.10;;;;;;;;;;6071461;23;20162;-91
2023/09/18 11:32:45;;;;;;;4.03;3.10;;;;;;;;;;6072641;23;20169;-92
2023/09/18 11:35:54;;;;;;;13.35;5.63;;;;;;;;;;6073621;23;20228;-90
2023/09/18 11:42:22;;;;;;;4.82;3.33;;;;;;;;;;6066267;23;20191;-91
2023/09/18 11:45:32;;;;;;;4.55;2.80;;;;;;;;;;6067713;23;20178;-91
2023/09/18 11:48:43;;;;;;;5.13;2.80;;;;;;;;;;6067221;23;20195;-93
2023/09/18 11:51:49;;;;;;;7.25;2.90;;;;;;;;;;6066577;23;20215;-94
2023/09/18 11:54:55;;;;;;;5.60;3.00;;;;;;;;;;6066744;23;20166;-90
2023/09/18 11:58:10;;;;;;;4.65;2.78;;;;;;;;;;6067415;23;20214;-92
2023/09/18 12:01:16;;;;;;;5.82;2.80;;;;;;;;;;6067973;23;20299;-92
2023/09/18 12:04:29;;;;;;;11.10;5.13;;;;;;;;;;6071327;23;20245;-94
2023/09/18 12:07:35;;;;;;;9.32;3.83;;;;;;;;;;6086123;23;20225;-91
2023/09/18 12:10:41;;;;;;;3.83;2.35;;;;;;;;;;6119197;23;20177;-94
2023/09/18 12:13:52;;;;;;;5.75;2.58;;;;;;;;;;6117778;23;20165;-92
2023/09/18 12:16:59;;;;;;;6.68;2.97;;;;;;;;;;6119103;23;20180;-92
2023/09/18 12:20:06;;;;;;;5.10;3.22;;;;;;;;;;6117275;23;20196;-89
2023/09/18 12:23:12;;;;;;;7.47;3.00;;;;;;;;;;6116224;23;20268;-92
2023/09/18 12:26:26;;;;;;;7.53;3.65;;;;;;;;;;6116949;23;20174;-94
2023/09/18 12:29:36;;;;;;;8.32;3.58;;;;;;;;;;6118392;23;20165;-91
2023/09/18 12:32:41;;;;;;;6.00;3.33;;;;;;;;;;6117700;23;20173;-93
2023/09/18 12:39:11;;;;;;;5.88;4.05;;;;;;;;;;6119155;23;20190;-90
2023/09/18 12:45:39;;;;;;;5.53;3.45;;;;;;;;;;6112874;23;20186;-93
2023/09/18 12:48:46;;;;;;;5.35;3.22;;;;;;;;;;6112470;23;20234;-93
2023/09/18 12:51:58;;;;;;;6.30;3.60;;;;;;;;;;6110120;23;20177;-89
2023/09/18 12:55:06;;;;;;;4.70;3.30;;;;;;;;;;6110183;23;20154;-93
2023/09/18 12:58:15;;;;;;;4.75;3.25;;;;;;;;;;6112882;23;20290;-91
2023/09/18 13:01:25;;;;;;;7.45;3.20;;;;;;;;;;6112174;23;20177;-92
2023/09/18 13:04:30;;;;;;;3.50;2.83;;;;;;;;;;6112017;23;20177;-93
2023/09/18 13:07:45;;;;;;;5.72;3.50;;;;;;;;;;6112801;23;20219;-93
2023/09/18 13:10:53;;;;;;;8.18;3.40;;;;;;;;;;6117398;23;20230;-89
2023/09/18 13:14:02;;;;;;;6.35;3.83;;;;;;;;;;6116604;23;20170;-92
2023/09/18 13:17:18;;;;;;;4.78;3.38;;;;;;;;;;6116457;23;20231;-92
2023/09/18 13:20:26;;;;;;;9.30;5.03;;;;;;;;;;6116514;23;20193;-94
2023/09/18 13:23:36;;;;;;;7.53;3.70;;;;;;;;;;6112483;23;20169;-89
2023/09/18 13:30:06;;;;;;;6.60;3.50;;;;;;;;;;6117035;23;20193;-91
2023/09/18 13:33:15;;;;;;;9.43;3.78;;;;;;;;;;6115242;23;20177;-92
2023/09/18 13:36:20;;;;;;;10.82;3.63;;;;;;;;;;6110321;23;20181;-92
2023/09/18 13:39:25;;;;;;;5.70;3.67;;;;;;;;;;6107940;23;20193;-91
2023/09/18 13:42:31;;;;;;;11.63;4.57;;;;;;;;;;6110935;23;20548;-93
2023/09/18 13:45:36;;;;;;;5.72;3.42;;;;;;;;;;6110374;23;20149;-91
2023/09/18 13:48:56;;;;;;;9.80;3.90;;;;;;;;;;6116218;23;20222;-92
2023/09/18 13:52:03;;;;;;;9.02;3.85;;;;;;;;;;6109457;23;20170;-90
2023/09/18 13:55:09;;;;;;;5.95;3.45;;;;;;;;;;6113654;23;20219;-94
2023/09/18 13:58:14;;;;;;;7.30;3.38;;;;;;;;;;6113133;23;20193;-92
2023/09/18 14:01:21;;;;;;;6.10;3.50;;;;;;;;;;6112752;23;20201;-92
2023/09/18 14:04:33;;;;;;;10.30;3.88;;;;;;;;;;6118294;23;20177;-91
2023/09/18 14:07:40;;;;;;;8.70;4.32;;;;;;;;;;6132913;23;20205;-91
2023/09/18 14:10:55;;;;;;;9.55;4.45;;;;;;;;;;6115979;23;20222;-92
2023/09/18 14:14:00;;;;;;;10.00;4.00;;;;;;;;;;6116133;23;20238;-93
2023/09/18 14:17:07;;;;;;;11.48;3.90;;;;;;;;;;6116494;23;20437;-93
2023/09/18 14:20:12;;;;;;;10.82;3.92;;;;;;;;;;6114669;23;20281;-92
2023/09/18 14:23:20;;;;;;;14.18;3.92;;;;;;;;;;6114079;23;20169;-90
2023/09/18 14:26:30;;;;;;;12.32;3.45;;;;;;;;;;6113146;23;20237;-92
2023/09/18 14:29:36;;;;;;;6.85;3.47;;;;;;;;;;6112647;23;20158;-95
2023/09/18 14:32:42;;;;;;;16.02;4.20;;;;;;;;;;6114569;23;20175;-93
2023/09/18 14:35:47;;;;;;;17.13;7.07;;;;;;;;;;6114916;23;20257;-94
2023/09/18 14:38:57;;;;;;;19.65;6.80;;;;;;;;;;6114943;23;20174;-90
2023/09/18 14:42:04;;;;;;;18.08;8.18;;;;;;;;;;6112609;23;20182;-92
2023/09/18 14:45:09;;;;;;;21.40;9.10;;;;;;;;;;6111534;23;20157;-92
2023/09/18 14:48:15;;;;;;;19.85;5.80;;;;;;;;;;6113866;23;20190;-91
2023/09/18 14:51:21;;;;;;;13.68;5.03;;;;;;;;;;6112658;23;20202;-95
2023/09/18 14:54:28;;;;;;;12.80;4.03;;;;;;;;;;6112480;23;20158;-91
2023/09/18 14:57:33;;;;;;;11.82;4.07;;;;;;;;;;6116111;23;20165;-92
2023/09/18 15:00:38;;;;;;;11.48;3.60;;;;;;;;;;6112458;23;20736;-94
2023/09/18 15:03:44;;;;;;;9.23;3.20;;;;;;;;;;6112831;23;20166;-93
2023/09/18 15:06:49;;;;;;;5.72;2.63;;;;;;;;;;6114932;23;20170;-90
2023/09/18 15:09:57;;;;;;;11.80;2.97;;;;;;;;;;6094900;23;20174;-92
2023/09/18 15:13:03;;;;;;;10.02;2.80;;;;;;;;;;6096811;23;20174;-92
2023/09/18 15:16:12;;;;;;;8.93;3.22;;;;;;;;;;6096696;23;20613;-92
2023/09/18 15:19:21;;;;;;;8.43;3.40;;;;;;;;;;6098664;23;20218;-92
2023/09/18 15:22:28;;;;;;;16.48;2.83;;;;;;;;;;6099184;23;20203;-94
2023/09/18 15:25:38;;;;;;;16.27;2.60;;;;;;;;;;6099609;23;20169;-91
2023/09/18 15:28:48;;;;;;;8.07;2.55;;;;;;;;;;6101214;23;20166;-92
2023/09/18 15:35:15;;;;;;;9.23;2.20;;;;;;;;;;6117354;23;20254;-91
2023/09/18 15:38:24;;;;;;;5.13;1.52;;;;;;;;;;6095825;23;20214;-89
2023/09/18 15:41:31;;;;;;;5.25;1.73;;;;;;;;;;6090528;23;20315;-89
2023/09/18 15:44:36;;;;;;;4.38;1.70;;;;;;;;;;6091486;23;20178;-88
2023/09/18 15:47:43;;;;;;;7.28;1.88;;;;;;;;;;6094276;23;20181;-89
2023/09/18 15:50:47;;;;;;;6.07;1.60;;;;;;;;;;6091609;23;20174;-89
2023/09/18 15:53:52;;;;;;;5.32;1.77;;;;;;;;;;6090463;23;20158;-89
2023/09/18 15:56:59;;;;;;;11.13;1.63;;;;;;;;;;6094253;23;20173;-90
2023/09/18 16:00:08;;;;;;;5.60;1.23;;;;;;;;;;6093237;23;20277;-89
2023/09/18 16:03:19;;;;;;;3.28;1.40;;;;;;;;;;6094301;23;20246;-88
2023/09/18 16:06:25;;;;;;;5.18;1.40;;;;;;;;;;6088302;23;20174;-90
2023/09/18 16:09:30;;;;;;;4.97;1.35;;;;;;;;;;6090149;23;20178;-91
2023/09/18 16:12:37;;;;;;;3.67;1.38;;;;;;;;;;6089638;23;20170;-89
2023/09/18 16:15:45;;;;;;;3.05;0.90;;;;;;;;;;6090551;23;20189;-89
2023/09/18 16:18:50;;;;;;;3.35;1.15;;;;;;;;;;6092022;23;20157;-90
2023/09/18 16:21:55;;;;;;;2.53;1.10;;;;;;;;;;6091521;23;20260;-88
2023/09/18 16:25:01;;;;;;;2.65;1.10;;;;;;;;;;6089898;23;20249;-89
2023/09/18 16:28:07;;;;;;;2.25;1.08;;;;;;;;;;6088148;23;20210;-88
2023/09/18 16:31:12;;;;;;;2.88;0.95;;;;;;;;;;6088165;23;20170;-88
2023/09/18 16:34:17;;;;;;;3.53;1.10;;;;;;;;;;6090243;23;20173;-88
2023/09/18 16:37:21;;;;;;;2.13;0.88;;;;;;;;;;6088348;23;20178;-88
2023/09/18 16:40:26;;;;;;;2.67;0.85;;;;;;;;;;6089654;23;20713;-89
2023/09/18 16:43:32;;;;;;;4.65;0.95;;;;;;;;;;6087672;23;20181;-89
2023/09/18 16:46:38;;;;;;;3.20;1.30;;;;;;;;;;6088522;23;20161;-88
2023/09/18 16:49:43;;;;;;;4.53;1.10;;;;;;;;;;6086503;23;20241;-89
2023/09/18 16:52:48;;;;;;;2.92;0.85;;;;;;;;;;6087656;23;20165;-89
2023/09/18 16:55:54;;;;;;;4.13;0.98;;;;;;;;;;6087635;23;20197;-88
2023/09/18 16:59:00;;;;;;;2.30;0.80;;;;;;;;;;6087294;23;20185;-87
2023/09/18 17:02:08;;;;;;;2.58;1.00;;;;;;;;;;6088690;23;20273;-88
2023/09/18 17:05:13;;;;;;;3.35;0.80;;;;;;;;;;6086463;23;20252;-88
2023/09/18 17:08:18;;;;;;;6.57;1.30;;;;;;;;;;6097492;23;20270;-86
2023/09/18 17:11:23;;;;;;;3.50;0.88;;;;;;;;;;6104630;23;20173;-87
2023/09/18 17:14:29;;;;;;;5.95;1.20;;;;;;;;;;6105297;23;20174;-83
2023/09/18 17:17:34;;;;;;;3.58;0.85;;;;;;;;;;6106077;23;20246;-86
2023/09/18 17:20:39;;;;;;;3.45;1.10;;;;;;;;;;6105432;23;20265;-88
2023/09/18 17:23:45;;;;;;;4.93;0.90;;;;;;;;;;6105677;23;20174;-89
2023/09/18 17:26:50;;;;;;;1.20;0.80;;;;;;;;;;6105291;23;20250;-89
2023/09/18 17:29:57;;;;;;;3.85;0.93;;;;;;;;;;6106071;23;20173;-90
2023/09/18 17:33:03;;;;;;;4.53;2.10;;;;;;;;;;6105114;23;20236;-89
2023/09/18 17:36:09;;;;;;;1.52;0.85;;;;;;;;;;6103719;23;20174;-89
2023/09/18 17:39:15;;;;;;;1.00;0.88;;;;;;;;;;6103987;23;20170;-90
2023/09/18 17:42:20;;;;;;;2.67;1.13;;;;;;;;;;6104079;23;20524;-89
2023/09/18 17:45:27;;;;;;;8.02;2.17;;;;;;;;;;6104824;23;20185;-88
2023/09/18 17:48:32;;;;;;;3.85;1.05;;;;;;;;;;6103629;23;20174;-88
2023/09/18 17:51:37;;;;;;;1.50;0.85;;;;;;;;;;6105197;23;20231;-90
2023/09/18 17:54:43;;;;;;;1.58;1.08;;;;;;;;;;6105660;23;20174;-88
2023/09/18 17:57:47;;;;;;;2.80;0.93;;;;;;;;;;6107599;23;20157;-88
2023/09/18 18:00:56;;;;;;;3.25;0.93;;;;;;;;;;6107355;23;20664;-88
2023/09/18 18:04:01;;;;;;;1.90;0.90;;;;;;;;;;6108118;23;20251;-89
2023/09/18 18:07:06;;;;;;;1.88;1.08;;;;;;;;;;6107755;23;20197;-86
2023/09/18 18:10:12;;;;;;;2.17;0.80;;;;;;;;;;6091083;23;20170;-88
2023/09/18 18:13:17;;;;;;;4.03;1.15;;;;;;;;;;6092278;23;20170;-88
2023/09/18 18:16:24;;;;;;;2.10;1.05;;;;;;;;;;6090444;23;20178;-88
2023/09/18 18:19:29;;;;;;;2.15;1.20;;;;;;;;;;6091263;23;20300;-89
2023/09/18 18:22:35;;;;;;;3.35;0.88;;;;;;;;;;6089990;23;20210;-86
2023/09/18 18:25:40;;;;;;;4.72;1.00;;;;;;;;;;6090711;23;20170;-89
2023/09/18 18:28:45;;;;;;;2.95;1.33;;;;;;;;;;6091381;23;20232;-87
2023/09/18 18:31:53;;;;;;;2.97;1.27;;;;;;;;;;6088687;23;20173;-88
2023/09/18 18:34:59;;;;;;;2.45;1.30;;;;;;;;;;6090863;23;20271;-89
2023/09/18 18:38:05;;;;;;;3.15;0.95;;;;;;;;;;6091081;23;20174;-88
2023/09/18 18:41:10;;;;;;;2.95;1.30;;;;;;;;;;6090585;23;20198;-89
2023/09/18 18:44:15;;;;;;;9.15;1.40;;;;;;;;;;6087494;23;20170;-88
2023/09/18 18:47:22;;;;;;;9.60;4.60;;;;;;;;;;6092698;23;20169;-90
2023/09/18 18:50:30;;;;;;;4.53;1.35;;;;;;;;;;6095164;23;20234;-90
2023/09/18 18:53:35;;;;;;;2.22;0.98;;;;;;;;;;6094043;23;20189;-88
2023/09/18 18:56:43;;;;;;;4.05;1.13;;;;;;;;;;6108753;23;20162;-87
2023/09/18 18:59:49;;;;;;;3.55;1.40;;;;;;;;;;6089026;23;20170;-89
2023/09/18 19:02:55;;;;;;;4.05;1.40;;;;;;;;;;6088828;23;20194;-87